Time;durP1;ratioP1;P1;durP2;ratioP2;P2;SDS_P1;SDS_P2;PMS_P1;PMS_P2;Temp;Humidity;BMP_temperature;BMP_pressure;BME280_temperature;BME280_humidity;BME280_pressure;Samples;Min_cycle;Max_cycle;Signal;HPM_P1;HPM_P2
2022/09/24 00:01:21;;;;;;;11.75;10.55;;;18.30;96.40;;;;;;5018547;28;20032;-73
2022/09/24 00:03:52;;;;;;;12.10;10.88;;;18.20;96.60;;;;;;5026200;28;20475;-74
2022/09/24 00:06:19;;;;;;;12.30;11.07;;;18.20;96.80;;;;;;5026858;28;20036;-73
2022/09/24 00:08:47;;;;;;;12.48;11.18;;;18.10;97.10;;;;;;5026085;28;20053;-74
2022/09/24 00:11:13;;;;;;;15.07;12.63;;;18.20;96.80;;;;;;5021809;28;20018;-73
2022/09/24 00:13:40;;;;;;;13.63;12.23;;;18.00;97.10;;;;;;5035213;28;20071;-75
2022/09/24 00:16:09;;;;;;;14.95;13.18;;;18.00;97.40;;;;;;5028436;28;20093;-74
2022/09/24 00:18:35;;;;;;;14.90;13.45;;;18.00;97.50;;;;;;5017201;28;20550;-74
2022/09/24 00:21:17;;;;;;;14.40;12.80;;;18.00;97.40;;;;;;5029566;28;20025;-75
2022/09/24 00:23:43;;;;;;;15.65;14.07;;;18.00;97.50;;;;;;5034950;28;20029;-74
2022/09/24 00:28:57;;;;;;;19.23;15.23;;;18.10;97.40;;;;;;5027719;28;20036;-73
2022/09/24 00:31:23;;;;;;;16.77;15.18;;;18.10;97.30;;;;;;5035417;28;20116;-73
2022/09/24 00:33:51;;;;;;;16.45;14.93;;;18.20;97.20;;;;;;5029193;28;20068;-74
2022/09/24 00:36:18;;;;;;;18.10;16.30;;;18.10;97.30;;;;;;5022506;28;20039;-73
2022/09/24 00:38:51;;;;;;;17.17;15.38;;;18.10;97.60;;;;;;5026671;28;20026;-74
2022/09/24 00:41:19;;;;;;;16.38;14.68;;;18.10;97.50;;;;;;5022727;28;20060;-73
2022/09/24 00:43:46;;;;;;;15.88;14.27;;;18.20;97.20;;;;;;5033935;28;20033;-73
2022/09/24 00:46:33;;;;;;;16.77;14.98;;;18.30;97.10;;;;;;5015894;28;20061;-75
2022/09/24 00:49:12;;;;;;;16.98;15.00;;;18.30;97.00;;;;;;5016941;28;20438;-74
2022/09/24 00:51:40;;;;;;;15.60;14.00;;;18.20;97.10;;;;;;5034504;28;20025;-75
2022/09/24 00:54:11;;;;;;;16.48;14.88;;;18.20;97.10;;;;;;5032492;28;20540;-76
2022/09/24 00:56:39;;;;;;;16.63;14.40;;;18.20;97.40;;;;;;5019890;28;20041;-75
2022/09/24 00:59:10;;;;;;;15.60;13.77;;;18.20;97.30;;;;;;5015740;28;20469;-76
2022/09/24 01:01:36;;;;;;;15.13;13.63;;;18.10;97.30;;;;;;5015684;28;20084;-75
2022/09/24 01:04:04;;;;;;;14.88;13.45;;;18.20;97.10;;;;;;5016032;28;20030;-77
2022/09/24 01:06:30;;;;;;;15.48;13.10;;;18.20;97.20;;;;;;5015675;28;20018;-76
2022/09/24 01:08:57;;;;;;;15.32;13.82;;;18.30;97.10;;;;;;5014943;28;20037;-77
2022/09/24 01:11:56;;;;;;;15.77;13.13;;;18.30;97.10;;;;;;5023516;28;20017;-76
2022/09/24 01:14:38;;;;;;;15.75;13.50;;;18.30;97.20;;;;;;5020149;28;20108;-74
2022/09/24 01:17:22;;;;;;;14.85;12.80;;;18.30;97.30;;;;;;5018276;28;20497;-74
2022/09/24 01:19:47;;;;;;;13.05;11.82;;;18.20;97.30;;;;;;5018739;28;20022;-73
2022/09/24 01:22:13;;;;;;;13.15;11.80;;;18.30;97.00;;;;;;5033213;28;20630;-73
2022/09/24 01:24:47;;;;;;;13.50;12.18;;;18.30;96.90;;;;;;5026609;28;20467;-73
2022/09/24 01:27:22;;;;;;;13.73;12.27;;;18.20;97.20;;;;;;5019592;28;20473;-73
2022/09/24 01:30:06;;;;;;;13.43;11.85;;;18.20;97.20;;;;;;5016255;28;20026;-74
2022/09/24 01:32:51;;;;;;;13.40;11.80;;;18.20;97.20;;;;;;5017337;28;20029;-74
2022/09/24 01:35:24;;;;;;;13.60;11.70;;;18.20;97.30;;;;;;5014914;28;20495;-73
2022/09/24 01:37:55;;;;;;;13.02;11.73;;;18.30;97.10;;;;;;5033420;28;20026;-74
2022/09/24 01:40:24;;;;;;;12.98;11.60;;;18.20;97.30;;;;;;5034745;28;20029;-73
2022/09/24 01:42:51;;;;;;;12.85;11.55;;;18.30;97.10;;;;;;5017002;28;20021;-74
2022/09/24 01:45:18;;;;;;;10.90;9.85;;;18.20;97.20;;;;;;5023953;28;20387;-73
2022/09/24 01:47:44;;;;;;;10.35;9.18;;;18.20;97.20;;;;;;5013363;28;20053;-74
2022/09/24 01:50:13;;;;;;;10.00;9.02;;;18.20;97.20;;;;;;5014993;28;20356;-74
2022/09/24 01:53:07;;;;;;;9.35;8.45;;;18.10;97.20;;;;;;5029047;28;20451;-74
2022/09/24 01:55:37;;;;;;;8.40;7.32;;;18.10;97.30;;;;;;5013974;28;20523;-73
2022/09/24 01:58:10;;;;;;;7.68;6.75;;;18.20;96.90;;;;;;5014770;28;20026;-73
2022/09/24 02:00:42;;;;;;;;;;;18.20;96.80;;;;;;5029904;28;20017;-73
2022/09/24 02:03:16;;;;;;;;;;;18.30;97.00;;;;;;5015379;28;19920;-74
2022/09/24 02:05:50;;;;;;;7.78;6.65;;;18.40;97.00;;;;;;5013458;28;20267;-73
2022/09/24 02:08:21;;;;;;;7.50;6.25;;;18.20;97.00;;;;;;5031533;28;20113;-73
2022/09/24 02:11:00;;;;;;;7.50;6.78;;;18.20;97.10;;;;;;5033104;28;20029;-74
2022/09/24 02:13:31;;;;;;;7.10;6.40;;;18.00;97.30;;;;;;5031829;28;20026;-73
2022/09/24 02:16:01;;;;;;;7.63;6.88;;;18.00;97.90;;;;;;5014213;28;20045;-74
2022/09/24 02:18:32;;;;;;;10.75;7.32;;;17.90;97.80;;;;;;5014375;28;20037;-73
2022/09/24 02:21:00;;;;;;;7.20;6.55;;;18.00;97.50;;;;;;5031543;28;20018;-75
2022/09/24 02:23:28;;;;;;;7.28;6.57;;;18.10;97.20;;;;;;5033793;28;20075;-74
2022/09/24 02:26:03;;;;;;;7.22;6.53;;;18.00;97.40;;;;;;5020625;28;20028;-76
2022/09/24 02:28:31;;;;;;;7.63;6.82;;;18.00;97.50;;;;;;5014189;28;20053;-76
2022/09/24 02:31:19;;;;;;;7.50;6.43;;;18.00;97.50;;;;;;5014093;28;20022;-76
2022/09/24 02:36:32;;;;;;;8.85;6.15;;;18.00;97.30;;;;;;5016238;28;20048;-77
2022/09/24 02:38:58;;;;;;;6.97;6.25;;;18.00;97.50;;;;;;5032803;28;20026;-74
2022/09/24 02:41:24;;;;;;;7.75;6.40;;;18.10;97.30;;;;;;5033629;28;20029;-76
2022/09/24 02:43:51;;;;;;;7.30;6.15;;;18.00;97.20;;;;;;5014797;28;20421;-75
2022/09/24 02:46:17;;;;;;;8.40;6.10;;;18.00;97.10;;;;;;5033158;28;20116;-76
2022/09/24 02:48:42;;;;;;;6.88;6.18;;;18.00;97.20;;;;;;5016220;28;20049;-75
2022/09/24 02:51:08;;;;;;;7.55;5.55;;;18.10;97.10;;;;;;5013356;28;20029;-73
2022/09/24 02:53:34;;;;;;;6.90;5.78;;;18.10;96.80;;;;;;5028600;28;20032;-76
2022/09/24 02:56:00;;;;;;;6.15;5.53;;;18.00;96.90;;;;;;5014978;28;20471;-73
2022/09/24 02:58:27;;;;;;;6.07;5.50;;;18.10;96.90;;;;;;5024903;28;20017;-76
2022/09/24 03:00:53;;;;;;;6.28;5.68;;;18.10;96.80;;;;;;5032505;28;20087;-74
2022/09/24 03:03:21;;;;;;;5.90;5.28;;;18.00;96.80;;;;;;5029689;28;20025;-75
2022/09/24 03:05:46;;;;;;;7.43;6.10;;;18.00;96.80;;;;;;5013085;28;20096;-76
2022/09/24 03:08:12;;;;;;;6.50;5.57;;;18.10;96.80;;;;;;5013538;28;20137;-74
2022/09/24 03:10:38;;;;;;;6.80;5.82;;;18.10;96.70;;;;;;5019946;28;20095;-75
2022/09/24 03:13:03;;;;;;;6.35;5.72;;;18.00;97.00;;;;;;5032558;28;20021;-73
2022/09/24 03:15:29;;;;;;;6.03;5.43;;;18.00;97.20;;;;;;5015168;28;20483;-74
2022/09/24 03:17:55;;;;;;;6.20;5.32;;;17.90;97.10;;;;;;5013830;28;20384;-74
2022/09/24 03:20:21;;;;;;;6.25;5.65;;;18.00;97.20;;;;;;5030527;28;20022;-74
2022/09/24 03:22:50;;;;;;;7.05;5.93;;;17.90;97.30;;;;;;5020227;28;20037;-73
2022/09/24 03:25:17;;;;;;;6.00;5.40;;;18.00;97.20;;;;;;5027198;28;20018;-73
2022/09/24 03:27:42;;;;;;;6.43;5.30;;;18.00;97.20;;;;;;5021371;28;20506;-73
2022/09/24 03:32:53;;;;;;;8.30;5.75;;;17.90;97.40;;;;;;5024193;28;20068;-74
2022/09/24 03:35:19;;;;;;;6.35;5.72;;;17.90;97.40;;;;;;5031257;28;20061;-73
2022/09/24 03:37:45;;;;;;;8.57;6.22;;;18.00;97.30;;;;;;5032643;28;20083;-74
2022/09/24 03:40:10;;;;;;;6.35;5.68;;;17.90;97.20;;;;;;5031706;28;20025;-72
2022/09/24 03:42:36;;;;;;;6.30;5.70;;;17.80;97.40;;;;;;5032381;28;20112;-72
2022/09/24 03:45:02;;;;;;;6.75;5.43;;;17.90;97.20;;;;;;5023794;28;20495;-73
2022/09/24 03:47:29;;;;;;;6.03;5.43;;;18.00;97.10;;;;;;5017246;28;20034;-73
2022/09/24 03:49:55;;;;;;;5.43;4.93;;;17.90;97.20;;;;;;5031660;28;20022;-73
2022/09/24 03:52:21;;;;;;;7.22;5.10;;;17.80;97.30;;;;;;5021584;28;20030;-73
2022/09/24 03:54:47;;;;;;;7.47;5.82;;;17.80;97.40;;;;;;5016868;28;20545;-73
2022/09/24 03:57:13;;;;;;;8.57;6.25;;;17.90;97.30;;;;;;5015228;28;20056;-74
2022/09/24 03:59:43;;;;;;;6.10;5.50;;;17.90;97.30;;;;;;5032635;28;20152;-74
2022/09/24 04:02:09;;;;;;;7.38;5.70;;;17.90;97.20;;;;;;5030805;28;20040;-73
2022/09/24 04:04:35;;;;;;;7.55;6.72;;;17.80;97.60;;;;;;5017188;28;20091;-74
2022/09/24 04:07:00;;;;;;;6.63;5.57;;;17.80;97.40;;;;;;5031444;28;20672;-73
2022/09/24 04:09:26;;;;;;;9.77;6.15;;;17.80;97.40;;;;;;5031736;28;20033;-73
2022/09/24 04:11:52;;;;;;;6.70;5.93;;;17.90;97.30;;;;;;5032587;28;20098;-73
2022/09/24 04:14:19;;;;;;;6.45;5.70;;;17.90;97.30;;;;;;5031627;28;20387;-74
2022/09/24 04:16:45;;;;;;;6.85;6.15;;;17.80;97.20;;;;;;5015794;28;20053;-74
2022/09/24 04:19:12;;;;;;;8.02;5.85;;;17.80;97.20;;;;;;5016096;28;20026;-77
2022/09/24 04:21:37;;;;;;;8.23;5.70;;;17.80;97.20;;;;;;5013095;28;20022;-76
2022/09/24 04:24:04;;;;;;;7.32;6.53;;;17.80;97.30;;;;;;5026694;28;20482;-77
2022/09/24 04:26:29;;;;;;;9.68;6.78;;;17.80;97.40;;;;;;5029777;28;20477;-76
2022/09/24 04:28:57;;;;;;;8.93;7.13;;;17.90;97.30;;;;;;5032224;28;20101;-77
2022/09/24 04:31:23;;;;;;;8.55;6.60;;;17.80;97.30;;;;;;5028868;28;20033;-77
2022/09/24 04:33:49;;;;;;;6.60;5.90;;;17.90;97.20;;;;;;5023200;28;20136;-76
2022/09/24 04:36:15;;;;;;;7.63;6.65;;;17.90;97.10;;;;;;5023325;28;20038;-74
2022/09/24 04:38:41;;;;;;;8.35;6.63;;;17.90;97.00;;;;;;5023662;28;20022;-76
2022/09/24 04:41:08;;;;;;;7.82;6.75;;;17.90;97.10;;;;;;5016308;28;20026;-74
2022/09/24 04:43:35;;;;;;;6.82;5.97;;;17.90;97.10;;;;;;5015209;28;20029;-77
2022/09/24 04:46:02;;;;;;;7.30;6.60;;;17.90;97.10;;;;;;5015785;28;20038;-74
2022/09/24 04:48:28;;;;;;;8.13;6.68;;;17.80;97.20;;;;;;5028735;28;20116;-75
2022/09/24 04:50:54;;;;;;;8.45;6.68;;;17.90;97.10;;;;;;5016893;28;20030;-75
2022/09/24 04:53:21;;;;;;;11.90;7.57;;;17.90;97.10;;;;;;5030080;28;20042;-76
2022/09/24 04:55:47;;;;;;;10.60;7.18;;;17.90;97.10;;;;;;5016070;28;20034;-76
2022/09/24 04:58:13;;;;;;;9.45;7.07;;;17.90;97.10;;;;;;5023509;28;20402;-75
2022/09/24 05:00:39;;;;;;;7.38;6.68;;;17.80;97.20;;;;;;5030270;28;20487;-74
2022/09/24 05:03:05;;;;;;;8.57;7.32;;;17.80;97.20;;;;;;5029959;28;20026;-75
2022/09/24 05:05:32;;;;;;;10.02;7.50;;;17.70;97.20;;;;;;5035077;28;20507;-75
2022/09/24 05:07:58;;;;;;;8.05;7.15;;;17.80;97.20;;;;;;5031465;28;20109;-73
2022/09/24 05:10:25;;;;;;;8.90;7.47;;;17.70;97.40;;;;;;5015338;28;20083;-73
2022/09/24 05:12:50;;;;;;;9.65;7.88;;;17.80;97.40;;;;;;5016093;28;20033;-73
2022/09/24 05:15:18;;;;;;;8.10;7.30;;;17.80;97.40;;;;;;5015220;28;20046;-73
2022/09/24 05:17:44;;;;;;;10.80;8.07;;;17.70;97.60;;;;;;5016416;28;20018;-73
2022/09/24 05:20:10;;;;;;;9.80;8.68;;;17.70;97.50;;;;;;5015042;28;20025;-73
2022/09/24 05:22:40;;;;;;;10.95;8.32;;;17.70;97.50;;;;;;5015505;28;20097;-74
2022/09/24 05:25:06;;;;;;;10.43;8.75;;;17.70;97.60;;;;;;5031411;28;20040;-74
2022/09/24 05:27:31;;;;;;;9.00;8.10;;;17.70;97.50;;;;;;5015630;28;20025;-74
2022/09/24 05:29:59;;;;;;;12.60;9.57;;;17.80;97.70;;;;;;5014833;28;20041;-73
2022/09/24 05:32:25;;;;;;;9.32;8.38;;;17.80;97.50;;;;;;5017649;28;20105;-74
2022/09/24 05:34:51;;;;;;;11.45;9.40;;;17.70;97.60;;;;;;5015278;28;20122;-73
2022/09/24 05:37:17;;;;;;;10.93;9.80;;;17.70;97.60;;;;;;5015328;28;20553;-74
2022/09/24 05:39:43;;;;;;;11.05;9.93;;;17.80;97.50;;;;;;5016102;28;20038;-73
2022/09/24 05:42:12;;;;;;;9.82;8.82;;;17.80;97.50;;;;;;5014010;28;20513;-74
2022/09/24 05:44:38;;;;;;;11.07;8.75;;;17.90;97.30;;;;;;5028318;28;20033;-75
2022/09/24 05:47:04;;;;;;;10.50;9.50;;;17.80;97.30;;;;;;5033596;28;20402;-74
2022/09/24 05:49:30;;;;;;;11.50;10.30;;;17.80;97.40;;;;;;5014661;28;20437;-74
2022/09/24 05:51:56;;;;;;;12.70;11.35;;;17.80;97.40;;;;;;5020592;28;20031;-74
2022/09/24 05:54:22;;;;;;;13.15;11.10;;;17.80;97.40;;;;;;5032390;28;20542;-73
2022/09/24 05:56:48;;;;;;;11.77;10.57;;;17.70;97.70;;;;;;5013071;28;20038;-73
2022/09/24 05:59:14;;;;;;;11.93;10.63;;;17.70;97.60;;;;;;5017537;28;20050;-74
2022/09/24 06:01:40;;;;;;;12.60;10.57;;;17.80;97.60;;;;;;5015821;28;20050;-74
2022/09/24 06:04:05;;;;;;;10.32;9.32;;;17.70;97.80;;;;;;5016544;28;20459;-74
2022/09/24 06:06:31;;;;;;;13.63;9.63;;;17.70;97.60;;;;;;5026050;28;20341;-74
2022/09/24 06:08:56;;;;;;;9.55;8.07;;;17.80;97.60;;;;;;5016754;28;20045;-74
2022/09/24 06:11:22;;;;;;;9.50;8.25;;;17.80;97.40;;;;;;5039054;28;20029;-74
2022/09/24 06:13:49;;;;;;;12.80;10.40;;;17.90;97.30;;;;;;5018864;28;20029;-74
2022/09/24 06:16:16;;;;;;;9.02;7.50;;;17.90;97.40;;;;;;5012427;28;20038;-74
2022/09/24 06:18:43;;;;;;;9.88;8.88;;;18.00;97.30;;;;;;5027274;28;20029;-74
2022/09/24 06:21:14;;;;;;;13.40;9.57;;;18.00;97.30;;;;;;5028102;28;20336;-73
2022/09/24 06:23:40;;;;;;;9.90;8.90;;;18.00;97.20;;;;;;5020796;28;20152;-74
2022/09/24 06:26:09;;;;;;;12.68;9.90;;;18.00;97.10;;;;;;5022256;28;20378;-73
2022/09/24 06:28:35;;;;;;;11.60;10.50;;;18.00;97.10;;;;;;5016296;28;20526;-73
2022/09/24 06:31:01;;;;;;;12.48;10.05;;;18.00;97.30;;;;;;5012674;28;20026;-74
2022/09/24 06:33:29;;;;;;;10.85;9.77;;;17.90;97.30;;;;;;5014369;28;20156;-73
2022/09/24 06:35:58;;;;;;;12.63;9.40;;;18.00;97.30;;;;;;5013099;28;20038;-73
2022/09/24 06:38:23;;;;;;;7.72;6.93;;;18.00;97.30;;;;;;5017300;28;20029;-73
2022/09/24 06:40:49;;;;;;;10.43;9.15;;;18.00;97.30;;;;;;5013236;28;20024;-73
2022/09/24 06:43:16;;;;;;;8.65;7.22;;;18.10;97.20;;;;;;5014551;28;20443;-73
2022/09/24 06:45:42;;;;;;;14.27;8.75;;;18.10;97.10;;;;;;5013120;28;20037;-74
2022/09/24 06:48:11;;;;;;;8.65;7.65;;;18.10;97.10;;;;;;5023483;28;20489;-74
2022/09/24 06:50:39;;;;;;;9.05;7.95;;;18.10;97.00;;;;;;5019543;28;20529;-74
2022/09/24 06:53:06;;;;;;;10.60;8.20;;;18.10;97.10;;;;;;5025778;28;20063;-74
2022/09/24 06:55:32;;;;;;;10.65;7.63;;;18.10;97.00;;;;;;5013372;28;20037;-74
2022/09/24 06:58:12;;;;;;;8.48;7.32;;;18.10;97.10;;;;;;5015729;28;20025;-74
2022/09/24 07:00:39;;;;;;;11.32;10.05;;;18.00;97.10;;;;;;5017985;28;20079;-74
2022/09/24 07:03:05;;;;;;;11.18;9.75;;;18.00;97.20;;;;;;5021578;28;20025;-74
2022/09/24 07:05:32;;;;;;;9.50;8.07;;;18.10;97.00;;;;;;5020425;28;20195;-73
2022/09/24 07:07:57;;;;;;;10.30;8.98;;;18.10;97.20;;;;;;5018378;28;20030;-73
2022/09/24 07:10:24;;;;;;;9.73;8.18;;;18.10;97.50;;;;;;5017784;28;20053;-74
2022/09/24 07:12:49;;;;;;;11.25;7.72;;;18.10;97.70;;;;;;5016514;28;20120;-74
2022/09/24 07:15:15;;;;;;;9.93;8.07;;;18.10;97.80;;;;;;5018237;28;20124;-74
2022/09/24 07:17:40;;;;;;;10.82;8.52;;;18.10;98.00;;;;;;5016805;28;20041;-73
2022/09/24 07:20:06;;;;;;;10.52;9.38;;;18.10;98.30;;;;;;5017804;28;20029;-74
2022/09/24 07:22:38;;;;;;;12.98;9.73;;;18.10;98.20;;;;;;5023280;28;20028;-73
2022/09/24 07:25:05;;;;;;;10.82;9.43;;;18.10;98.40;;;;;;5027489;28;20030;-73
2022/09/24 07:27:32;;;;;;;10.82;9.73;;;18.60;96.90;;;;;;5020562;28;20053;-71
2022/09/24 07:29:57;;;;;;;12.98;9.80;;;19.00;96.20;;;;;;5021014;28;20032;-72
2022/09/24 07:32:23;;;;;;;12.65;9.50;;;18.60;97.20;;;;;;5019369;28;20029;-72
2022/09/24 07:34:48;;;;;;;10.77;9.48;;;18.40;97.70;;;;;;5018401;28;20026;-72
2022/09/24 07:37:14;;;;;;;10.48;9.35;;;18.30;97.80;;;;;;5014311;28;20563;-72
2022/09/24 07:39:40;;;;;;;11.68;9.02;;;18.20;97.80;;;;;;5032292;28;20471;-72
2022/09/24 07:42:06;;;;;;;9.95;8.55;;;18.20;97.70;;;;;;5015862;28;20472;-71
2022/09/24 07:44:32;;;;;;;11.02;9.00;;;18.20;97.70;;;;;;5010781;28;20033;-71
2022/09/24 07:46:57;;;;;;;11.32;8.82;;;18.20;97.60;;;;;;5012259;28;20422;-71
2022/09/24 07:49:23;;;;;;;11.57;9.43;;;18.20;97.70;;;;;;5015269;28;20022;-72
2022/09/24 07:51:49;;;;;;;11.40;9.85;;;18.20;97.70;;;;;;5017974;28;20072;-72
2022/09/24 07:54:15;;;;;;;14.65;12.20;;;18.20;97.50;;;;;;5019648;28;20021;-72
2022/09/24 07:56:41;;;;;;;14.48;13.07;;;18.20;97.30;;;;;;5036620;28;20115;-72
2022/09/24 07:59:09;;;;;;;13.43;12.10;;;18.30;97.00;;;;;;5010316;28;20049;-71
2022/09/24 08:01:35;;;;;;;13.88;12.35;;;18.30;96.90;;;;;;5010243;28;20033;-72
2022/09/24 08:04:03;;;;;;;15.88;13.02;;;18.30;97.20;;;;;;5011376;28;20041;-72
2022/09/24 08:06:32;;;;;;;15.07;13.48;;;18.30;97.00;;;;;;5026807;28;20045;-71
2022/09/24 08:08:58;;;;;;;13.13;11.85;;;18.30;96.90;;;;;;5015269;28;20041;-71
2022/09/24 08:11:24;;;;;;;11.20;9.80;;;18.30;96.90;;;;;;5020460;28;20021;-71
2022/09/24 08:13:49;;;;;;;12.00;10.85;;;18.20;97.20;;;;;;5020709;28;20466;-71
2022/09/24 08:16:16;;;;;;;15.13;13.48;;;18.10;97.40;;;;;;5012858;28;20037;-71
2022/09/24 08:18:42;;;;;;;13.35;12.05;;;18.10;97.30;;;;;;5028984;28;20030;-71
2022/09/24 08:21:10;;;;;;;14.65;13.15;;;18.10;97.30;;;;;;5035613;28;20029;-71
2022/09/24 08:23:38;;;;;;;14.38;12.88;;;18.20;97.10;;;;;;5038684;28;20061;-71
2022/09/24 08:26:04;;;;;;;13.32;11.70;;;18.20;97.20;;;;;;5020791;28;20022;-71
2022/09/24 08:28:30;;;;;;;13.38;11.98;;;18.10;97.20;;;;;;5028994;28;20029;-71
2022/09/24 08:30:59;;;;;;;15.00;12.48;;;18.10;97.40;;;;;;5031580;28;20099;-71
2022/09/24 08:33:30;;;;;;;13.10;11.75;;;18.10;97.40;;;;;;5017660;28;20014;-71
2022/09/24 08:35:58;;;;;;;14.80;13.07;;;18.10;97.60;;;;;;5018459;28;20480;-70
2022/09/24 08:38:24;;;;;;;14.82;13.30;;;18.10;97.60;;;;;;5024382;28;20076;-71
2022/09/24 08:40:59;;;;;;;14.50;12.98;;;18.20;97.60;;;;;;5023694;28;20038;-71
2022/09/24 08:43:28;;;;;;;14.80;13.30;;;18.20;97.40;;;;;;5020412;28;20100;-71
2022/09/24 08:48:48;;;;;;;14.93;12.77;;;18.20;97.60;;;;;;5017871;28;20064;-72
2022/09/24 08:51:17;;;;;;;15.73;14.13;;;18.20;97.70;;;;;;5016423;28;20101;-72
2022/09/24 08:53:49;;;;;;;15.77;14.10;;;18.20;97.60;;;;;;5017282;28;20057;-71
2022/09/24 08:56:20;;;;;;;15.75;13.32;;;18.20;97.80;;;;;;5033909;28;20883;-72
2022/09/24 08:59:00;;;;;;;15.63;14.02;;;18.20;97.90;;;;;;5010549;28;20022;-70
2022/09/24 09:01:46;;;;;;;19.05;15.20;;;18.10;97.90;;;;;;5020556;28;20030;-71
2022/09/24 09:04:40;;;;;;;15.27;13.68;;;18.20;97.80;;;;;;5017910;28;20115;-72
2022/09/24 09:07:08;;;;;;;15.52;14.02;;;18.20;97.90;;;;;;5019076;28;20054;-72
2022/09/24 09:09:59;;;;;;;17.58;14.15;;;18.20;98.00;;;;;;5015939;28;20030;-72
2022/09/24 09:12:33;;;;;;;14.65;13.20;;;18.20;98.10;;;;;;5024763;28;20076;-72
2022/09/24 09:15:05;;;;;;;14.38;12.93;;;18.20;98.00;;;;;;5024555;28;20104;-71
2022/09/24 09:17:53;;;;;;;14.60;13.10;;;18.20;98.10;;;;;;5020918;28;20056;-71
2022/09/24 09:20:26;;;;;;;15.32;12.85;;;18.10;98.30;;;;;;5025066;28;20354;-71
2022/09/24 09:22:52;;;;;;;14.07;12.30;;;18.10;98.30;;;;;;5029240;28;20025;-73
2022/09/24 09:25:23;;;;;;;17.33;15.52;;;18.00;98.50;;;;;;5028488;28;20080;-71
2022/09/24 09:28:06;;;;;;;18.00;16.13;;;18.10;98.60;;;;;;5016490;28;20526;-71
2022/09/24 09:30:42;;;;;;;17.05;15.32;;;18.20;98.60;;;;;;5012046;28;20033;-71
2022/09/24 09:33:17;;;;;;;17.00;15.02;;;18.20;98.50;;;;;;5030806;28;20023;-71
2022/09/24 09:35:57;;;;;;;15.68;14.18;;;18.20;98.50;;;;;;5019438;28;20482;-71
2022/09/24 09:38:44;;;;;;;17.30;14.35;;;18.10;98.50;;;;;;5014577;28;20045;-71
2022/09/24 09:41:30;;;;;;;17.40;15.55;;;18.10;98.80;;;;;;5017980;28;20112;-71
2022/09/24 09:44:08;;;;;;;18.45;16.13;;;18.20;98.80;;;;;;5032078;28;20071;-71
2022/09/24 09:46:39;;;;;;;18.70;15.98;;;18.20;98.80;;;;;;5014908;28;20537;-71
2022/09/24 09:49:06;;;;;;;18.87;17.07;;;18.20;98.80;;;;;;5015119;28;20018;-72
2022/09/24 09:51:40;;;;;;;19.33;16.80;;;18.20;98.80;;;;;;5013528;28;20021;-71
2022/09/24 09:54:06;;;;;;;19.45;16.80;;;18.20;99.00;;;;;;5017389;28;20084;-71
2022/09/24 09:56:40;;;;;;;19.10;17.08;;;18.30;99.00;;;;;;5014757;28;20042;-71
2022/09/24 09:59:12;;;;;;;19.67;17.75;;;18.20;99.10;;;;;;5015156;28;20029;-71
2022/09/24 10:01:40;;;;;;;18.75;16.95;;;18.20;99.20;;;;;;5017570;28;20038;-71
2022/09/24 10:04:27;;;;;;;20.45;18.35;;;18.20;99.20;;;;;;5017376;28;20029;-71
2022/09/24 10:07:07;;;;;;;19.98;18.17;;;18.30;99.20;;;;;;5023141;28;20364;-72
2022/09/24 10:09:33;;;;;;;19.83;17.70;;;18.20;99.20;;;;;;5012249;28;20443;-72
2022/09/24 10:12:25;;;;;;;19.98;17.88;;;18.30;99.40;;;;;;5020316;28;20026;-71
2022/09/24 10:15:25;;;;;;;21.83;19.58;;;18.30;99.50;;;;;;5016169;28;20050;-71
2022/09/24 10:17:54;;;;;;;22.65;18.92;;;18.30;99.50;;;;;;5014351;28;20041;-71
2022/09/24 10:20:26;;;;;;;21.10;19.08;;;18.30;99.40;;;;;;5018712;28;20076;-72
2022/09/24 10:22:56;;;;;;;21.95;19.35;;;18.20;99.60;;;;;;5012573;28;20064;-71
2022/09/24 10:25:28;;;;;;;19.88;17.88;;;18.20;99.60;;;;;;5029195;28;20056;-71
2022/09/24 10:30:32;;;;;;;18.27;16.33;;;18.20;99.50;;;;;;5015217;28;20084;-72
2022/09/24 10:30:57;;;;;;;18.55;16.20;;;18.20;99.50;;;;;;5030545;28;20136;-71
2022/09/24 10:33:24;;;;;;;21.00;15.13;;;18.20;99.50;;;;;;5030438;28;20036;-70
2022/09/24 10:35:50;;;;;;;15.30;13.70;;;18.20;99.40;;;;;;5020707;28;20597;-71
2022/09/24 10:38:20;;;;;;;15.20;13.60;;;18.20;99.40;;;;;;5022984;28;20010;-72
2022/09/24 10:40:46;;;;;;;12.98;11.50;;;18.20;99.40;;;;;;5020407;28;20045;-72
2022/09/24 10:43:20;;;;;;;14.88;12.43;;;18.20;99.50;;;;;;5014048;28;20018;-71
2022/09/24 10:46:04;;;;;;;14.13;12.73;;;18.20;99.40;;;;;;5022646;28;20044;-71
2022/09/24 10:48:38;;;;;;;14.98;12.15;;;18.30;99.60;;;;;;5023702;28;20060;-71
2022/09/24 10:51:28;;;;;;;13.05;11.77;;;18.20;99.60;;;;;;5019425;28;20487;-71
2022/09/24 10:54:20;;;;;;;14.68;11.38;;;18.30;99.60;;;;;;5022960;28;20033;-71
2022/09/24 10:56:54;;;;;;;12.10;10.82;;;18.30;99.60;;;;;;5011548;28;20034;-71
2022/09/24 10:59:41;;;;;;;11.98;10.25;;;18.30;99.90;;;;;;5022988;28;20025;-71
2022/09/24 11:02:06;;;;;;;13.13;10.18;;;18.30;99.80;;;;;;5011020;28;20095;-71
2022/09/24 11:04:57;;;;;;;9.88;8.52;;;18.30;99.60;;;;;;5010022;28;20026;-70
2022/09/24 11:07:44;;;;;;;8.32;6.63;;;18.20;99.80;;;;;;5014059;28;20133;-71
2022/09/24 11:10:40;;;;;;;7.30;6.18;;;18.20;99.90;;;;;;5017161;28;20063;-72
2022/09/24 11:13:16;;;;;;;4.32;2.70;;;18.20;99.90;;;;;;5008350;28;20116;-71
2022/09/24 11:15:57;;;;;;;5.28;2.80;;;18.00;99.90;;;;;;5008837;28;20080;-71
2022/09/24 11:18:48;;;;;;;7.85;3.00;;;18.10;99.90;;;;;;5013038;28;20026;-73
2022/09/24 11:21:56;;;;;;;4.50;2.40;;;18.10;99.80;;;;;;5013570;28;20110;-75
2022/09/24 11:24:42;;;;;;;6.18;2.20;;;18.20;99.80;;;;;;5012879;28;20463;-73
2022/09/24 11:27:29;;;;;;;7.25;2.17;;;18.20;99.80;;;;;;5018222;28;20025;-78
2022/09/24 11:30:17;;;;;;;5.57;1.48;;;18.20;99.90;;;;;;5029939;28;20754;-75
2022/09/24 11:33:13;;;;;;;10.35;2.67;;;17.90;99.90;;;;;;5042277;28;20108;-76
2022/09/24 11:36:07;;;;;;;5.97;1.90;;;18.00;99.90;;;;;;5037698;28;20039;-72
2022/09/24 11:39:00;;;;;;;5.25;2.22;;;18.00;99.90;;;;;;5013114;28;20053;-71
2022/09/24 11:41:42;;;;;;;6.93;1.77;;;18.00;99.90;;;;;;5018588;28;20076;-72
2022/09/24 11:44:10;;;;;;;5.38;2.35;;;18.10;99.90;;;;;;5027262;28;20064;-71
2022/09/24 11:46:57;;;;;;;4.93;2.35;;;18.10;99.90;;;;;;5015884;28;20069;-71
2022/09/24 11:49:32;;;;;;;6.50;2.33;;;18.10;99.90;;;;;;5025351;28;20175;-71
2022/09/24 11:52:25;;;;;;;5.57;1.92;;;18.10;99.90;;;;;;5035884;28;20026;-74
2022/09/24 11:55:11;;;;;;;6.78;2.20;;;18.10;99.90;;;;;;5015768;28;20029;-74
2022/09/24 11:57:48;;;;;;;6.25;2.38;;;18.20;99.90;;;;;;5034597;28;20107;-74
2022/09/24 12:00:16;;;;;;;8.88;2.67;;;18.20;99.90;;;;;;5013845;28;20044;-70
2022/09/24 12:03:16;;;;;;;6.65;2.35;;;18.30;99.90;;;;;;5009154;28;20033;-71
2022/09/24 12:06:01;;;;;;;9.30;2.50;;;18.20;99.90;;;;;;5023150;28;21939;-72
2022/09/24 12:08:46;;;;;;;5.70;2.60;;;18.30;99.90;;;;;;5015878;28;20040;-74
2022/09/24 12:11:21;;;;;;;7.63;1.90;;;18.30;99.90;;;;;;5027321;28;20025;-74
2022/09/24 12:13:51;;;;;;;5.97;2.03;;;18.10;99.90;;;;;;5017546;28;20033;-74
2022/09/24 12:16:29;;;;;;;7.65;1.77;;;18.10;99.90;;;;;;5020188;28;20038;-74
2022/09/24 12:18:57;;;;;;;7.40;2.00;;;18.20;99.90;;;;;;5018541;28;20032;-74
2022/09/24 12:21:38;;;;;;;6.03;1.80;;;18.10;99.90;;;;;;5023633;28;20506;-73
2022/09/24 12:24:12;;;;;;;6.53;2.05;;;18.10;99.90;;;;;;5020077;28;20119;-72
2022/09/24 12:26:41;;;;;;;8.57;1.92;;;18.20;99.90;;;;;;5016691;28;20021;-71
2022/09/24 12:35:10;;;;;;;6.00;2.30;;;18.20;99.90;;;;;;5031856;28;20065;-74
2022/09/24 12:37:39;;;;;;;7.85;2.03;;;18.20;99.90;;;;;;5025409;28;20034;-71
2022/09/24 12:40:11;;;;;;;7.47;2.30;;;18.20;99.90;;;;;;5013240;28;20033;-73
2022/09/24 12:42:42;;;;;;;5.68;2.17;;;18.30;99.90;;;;;;5021733;28;20133;-71
2022/09/24 12:45:17;;;;;;;8.82;2.20;;;18.20;99.90;;;;;;5017387;28;20029;-71
2022/09/24 12:47:52;;;;;;;6.60;1.92;;;18.30;99.80;;;;;;5020029;28;20045;-71
2022/09/24 12:50:33;;;;;;;6.72;2.03;;;18.30;99.90;;;;;;5022176;28;20018;-72
2022/09/24 12:52:59;;;;;;;7.43;1.70;;;18.30;99.90;;;;;;5015735;28;20087;-74
2022/09/24 12:55:30;;;;;;;9.07;2.17;;;18.40;99.70;;;;;;5014967;28;20051;-72
2022/09/24 12:58:00;;;;;;;6.77;1.77;;;18.20;99.90;;;;;;5019826;28;20064;-72
2022/09/24 13:00:44;;;;;;;6.07;1.80;;;18.20;99.80;;;;;;5023828;28;20330;-71
2022/09/24 13:03:37;;;;;;;6.18;1.70;;;18.30;99.90;;;;;;5019665;28;20029;-71
2022/09/24 13:06:28;;;;;;;7.82;1.35;;;18.30;99.70;;;;;;5014948;28;20053;-71
2022/09/24 13:08:54;;;;;;;5.95;1.95;;;18.30;99.70;;;;;;5023334;28;20482;-71
2022/09/24 13:11:28;;;;;;;6.25;1.67;;;18.30;99.80;;;;;;5020941;28;20030;-71
2022/09/24 13:13:59;;;;;;;7.70;2.10;;;18.30;99.90;;;;;;5025704;28;20056;-72
2022/09/24 13:16:25;;;;;;;8.40;1.55;;;18.20;99.70;;;;;;5022603;28;20050;-71